createdAt,value
2019-01-23T00:00:29.558Z,994.06
2019-01-23T00:01:29.535Z,994.08
2019-01-23T00:02:29.499Z,994.05
2019-01-23T00:03:29.513Z,994.03
2019-01-23T00:04:29.440Z,994.08
2019-01-23T00:05:29.409Z,994.02
2019-01-23T00:06:29.379Z,994.02
2019-01-23T00:07:29.348Z,994.02
2019-01-23T00:08:29.318Z,993.98
2019-01-23T00:09:29.290Z,993.95
2019-01-23T00:10:29.266Z,993.97
2019-01-23T00:11:29.245Z,993.97
2019-01-23T00:12:29.200Z,993.94
2019-01-23T00:13:29.169Z,993.93
2019-01-23T00:14:29.139Z,993.91
2019-01-23T00:15:29.106Z,993.89
2019-01-23T00:16:29.078Z,993.87
2019-01-23T00:17:29.048Z,993.89
2019-01-23T00:18:29.352Z,993.87
2019-01-23T00:19:28.989Z,993.87
2019-01-23T00:20:28.957Z,993.85
2019-01-23T00:21:28.930Z,993.86
2019-01-23T00:22:28.913Z,993.87
2019-01-23T00:23:28.871Z,993.83
2019-01-23T00:24:28.840Z,993.85
2019-01-23T00:25:28.809Z,993.85
2019-01-23T00:26:28.776Z,993.84
2019-01-23T00:27:28.745Z,993.81
2019-01-23T00:28:28.715Z,993.79
2019-01-23T00:29:28.686Z,993.76
2019-01-23T00:30:28.657Z,993.76
2019-01-23T00:31:28.626Z,993.72
2019-01-23T00:32:28.595Z,993.72
2019-01-23T00:33:28.566Z,993.70
2019-01-23T00:34:28.547Z,993.69
2019-01-23T00:35:28.504Z,993.63
2019-01-23T00:36:28.473Z,993.64
2019-01-23T00:37:28.446Z,993.64
2019-01-23T00:38:28.418Z,993.63
2019-01-23T00:39:28.383Z,993.63
2019-01-23T00:40:28.355Z,993.61
2019-01-23T00:41:28.329Z,993.60
2019-01-23T00:42:28.295Z,993.56
2019-01-23T00:43:28.265Z,993.60
2019-01-23T00:44:28.234Z,993.58
2019-01-23T00:45:28.205Z,993.55
2019-01-23T00:46:28.175Z,993.57
2019-01-23T00:47:28.145Z,993.53
2019-01-23T00:48:28.117Z,993.57
2019-01-23T00:49:28.085Z,993.56
2019-01-23T00:50:28.057Z,993.50
2019-01-23T00:51:28.022Z,993.50
2019-01-23T00:52:27.993Z,993.48
2019-01-23T00:53:27.965Z,993.47
2019-01-23T00:54:27.933Z,993.47
2019-01-23T00:55:27.903Z,993.53
2019-01-23T00:56:27.874Z,993.45
2019-01-23T00:57:27.841Z,993.50
2019-01-23T00:58:27.814Z,993.46
2019-01-23T00:59:27.784Z,993.46
2019-01-23T01:00:27.751Z,993.40
2019-01-23T01:01:27.726Z,993.44
2019-01-23T01:02:27.693Z,993.41
2019-01-23T01:03:27.660Z,993.44
2019-01-23T01:04:27.633Z,993.46
2019-01-23T01:05:27.605Z,993.45
2019-01-23T01:06:27.571Z,993.44
2019-01-23T01:07:27.547Z,993.46
2019-01-23T01:08:27.515Z,993.46
2019-01-23T01:09:27.486Z,993.46
2019-01-23T01:10:27.465Z,993.44
2019-01-23T01:11:27.433Z,993.45
2019-01-23T01:12:27.390Z,993.48
2019-01-23T01:13:27.362Z,993.45
2019-01-23T01:14:27.331Z,993.45
2019-01-23T01:15:27.301Z,993.43
2019-01-23T01:16:27.271Z,993.43
2019-01-23T01:17:27.241Z,993.44
2019-01-23T01:18:27.212Z,993.45
2019-01-23T01:19:27.181Z,993.41
2019-01-23T01:20:27.149Z,993.43
2019-01-23T01:21:27.124Z,993.42
2019-01-23T01:22:27.091Z,993.41
2019-01-23T01:23:27.059Z,993.40
2019-01-23T01:24:27.029Z,993.38
2019-01-23T01:25:27.001Z,993.41
2019-01-23T01:26:26.970Z,993.43
2019-01-23T01:27:26.942Z,993.37
2019-01-23T01:28:26.909Z,993.38
2019-01-23T01:29:26.878Z,993.38
2019-01-23T01:30:26.848Z,993.33
2019-01-23T01:31:26.818Z,993.34
2019-01-23T01:32:26.790Z,993.34
2019-01-23T01:33:26.760Z,993.32
2019-01-23T01:34:26.749Z,993.34
2019-01-23T01:35:26.701Z,993.35
2019-01-23T01:36:26.667Z,993.31
2019-01-23T01:37:26.637Z,993.30
2019-01-23T01:38:26.610Z,993.32
2019-01-23T01:39:26.577Z,993.30
2019-01-23T01:40:26.547Z,993.31
2019-01-23T01:41:26.519Z,993.31
2019-01-23T01:42:26.488Z,993.28
2019-01-23T01:43:26.466Z,993.32
2019-01-23T01:44:26.429Z,993.31
2019-01-23T01:45:26.397Z,993.33
2019-01-23T01:46:26.367Z,993.29
2019-01-23T01:47:26.340Z,993.33
2019-01-23T01:48:26.306Z,993.30
2019-01-23T01:49:26.279Z,993.27
2019-01-23T01:50:26.246Z,993.29
2019-01-23T01:51:26.216Z,993.30
2019-01-23T01:52:26.187Z,993.27
2019-01-23T01:53:26.155Z,993.22
2019-01-23T01:54:26.126Z,993.24
2019-01-23T01:55:26.095Z,993.25
2019-01-23T01:56:26.065Z,993.23
2019-01-23T01:57:26.036Z,993.23
2019-01-23T01:58:26.005Z,993.28
2019-01-23T01:59:25.976Z,993.23
2019-01-23T02:00:25.943Z,993.23
2019-01-23T02:01:25.915Z,993.26
2019-01-23T02:02:25.886Z,993.24
2019-01-23T02:03:25.857Z,993.24
2019-01-23T02:04:25.825Z,993.22
2019-01-23T02:05:25.793Z,993.23
2019-01-23T02:06:25.768Z,993.22
2019-01-23T02:07:25.739Z,993.21
2019-01-23T02:08:25.704Z,993.21
2019-01-23T02:09:25.673Z,993.22
2019-01-23T02:10:25.642Z,993.17
2019-01-23T02:11:25.613Z,993.21
2019-01-23T02:12:25.581Z,993.18
2019-01-23T02:13:25.553Z,993.17
2019-01-23T02:14:25.534Z,993.19
2019-01-23T02:15:25.491Z,993.15
2019-01-23T02:16:25.473Z,993.20
2019-01-23T02:17:25.432Z,993.18
2019-01-23T02:18:25.403Z,993.11
2019-01-23T02:19:25.381Z,993.17
2019-01-23T02:20:25.340Z,993.16
2019-01-23T02:21:25.310Z,993.15
2019-01-23T02:22:25.282Z,993.12
2019-01-23T02:23:25.250Z,993.14
2019-01-23T02:24:25.220Z,993.10
2019-01-23T02:25:25.190Z,993.04
2019-01-23T02:26:25.163Z,993.07
2019-01-23T02:27:25.130Z,993.03
2019-01-23T02:28:25.098Z,993.00
2019-01-23T02:29:25.070Z,993.03
2019-01-23T02:30:25.039Z,993.01
2019-01-23T02:31:25.008Z,993.04
2019-01-23T02:32:24.977Z,993.03
2019-01-23T02:33:24.951Z,992.99
2019-01-23T02:34:24.923Z,992.98
2019-01-23T02:35:24.900Z,993.00
2019-01-23T02:36:24.859Z,992.97
2019-01-23T02:37:24.842Z,993.01
2019-01-23T02:38:24.800Z,992.98
2019-01-23T02:39:24.769Z,992.96
2019-01-23T02:40:24.737Z,992.96
2019-01-23T02:41:24.710Z,992.89
2019-01-23T02:42:24.678Z,992.92
2019-01-23T02:43:24.653Z,992.91
2019-01-23T02:44:24.622Z,992.90
2019-01-23T02:45:24.595Z,992.88
2019-01-23T02:46:24.557Z,992.91
2019-01-23T02:47:24.526Z,992.87
2019-01-23T02:48:24.500Z,992.85
2019-01-23T02:49:24.473Z,992.86
2019-01-23T02:50:24.439Z,992.82
2019-01-23T02:51:24.406Z,992.81
2019-01-23T02:52:24.376Z,992.87
2019-01-23T02:53:24.354Z,992.85
2019-01-23T02:54:24.320Z,992.83
2019-01-23T02:55:24.284Z,992.85
2019-01-23T02:56:24.256Z,992.83
2019-01-23T02:57:24.226Z,992.82
2019-01-23T02:58:24.200Z,992.83
2019-01-23T02:59:24.170Z,992.81
2019-01-23T03:00:24.135Z,992.82
2019-01-23T03:01:24.105Z,992.78
2019-01-23T03:02:24.076Z,992.77
2019-01-23T03:03:24.043Z,992.76
2019-01-23T03:04:24.017Z,992.73
2019-01-23T03:05:23.984Z,992.72
2019-01-23T03:06:23.955Z,992.72
2019-01-23T03:07:23.926Z,992.70
2019-01-23T03:08:23.897Z,992.68
2019-01-23T03:09:23.865Z,992.65
2019-01-23T03:10:23.835Z,992.64
2019-01-23T03:11:23.804Z,992.62
2019-01-23T03:12:23.774Z,992.61
2019-01-23T03:13:23.747Z,992.64
2019-01-23T03:14:23.714Z,992.65
2019-01-23T03:15:23.686Z,992.62
2019-01-23T03:16:23.654Z,992.61
2019-01-23T03:17:23.629Z,992.64
2019-01-23T03:18:23.593Z,992.61
2019-01-23T03:19:23.562Z,992.59
2019-01-23T03:20:23.533Z,992.58
2019-01-23T03:21:23.506Z,992.60
2019-01-23T03:22:23.477Z,992.56
2019-01-23T03:23:23.443Z,992.58
2019-01-23T03:24:23.414Z,992.61
2019-01-23T03:25:23.382Z,992.58
2019-01-23T03:26:23.354Z,992.62
2019-01-23T03:27:23.320Z,992.64
2019-01-23T03:28:23.292Z,992.65
2019-01-23T03:29:24.675Z,992.64
2019-01-23T03:30:23.265Z,992.60
2019-01-23T03:31:23.203Z,992.60
2019-01-23T03:32:23.173Z,992.61
2019-01-23T03:33:23.154Z,992.56
2019-01-23T03:34:23.112Z,992.60
2019-01-23T03:35:23.081Z,992.61
2019-01-23T03:36:23.054Z,992.61
2019-01-23T03:37:23.030Z,992.62
2019-01-23T03:38:22.993Z,992.57
2019-01-23T03:39:22.960Z,992.61
2019-01-23T03:40:22.931Z,992.59
2019-01-23T03:41:22.902Z,992.59
2019-01-23T03:42:22.871Z,992.61
2019-01-23T03:43:22.840Z,992.58
2019-01-23T03:44:22.811Z,992.59
2019-01-23T03:45:22.782Z,992.61
2019-01-23T03:46:22.751Z,992.60
2019-01-23T03:47:22.721Z,992.64
2019-01-23T03:48:22.692Z,992.61
2019-01-23T03:49:22.661Z,992.61
2019-01-23T03:50:22.633Z,992.60
2019-01-23T03:51:22.603Z,992.64
2019-01-23T03:52:22.572Z,992.60
2019-01-23T03:53:22.542Z,992.59
2019-01-23T03:54:22.512Z,992.60
2019-01-23T03:55:22.481Z,992.61
2019-01-23T03:56:22.451Z,992.58
2019-01-23T03:57:22.422Z,992.61
2019-01-23T03:58:22.392Z,992.61
2019-01-23T03:59:22.360Z,992.55
2019-01-23T04:00:22.334Z,992.56
2019-01-23T04:01:22.301Z,992.60
2019-01-23T04:02:22.274Z,992.59
2019-01-23T04:03:22.241Z,992.58
2019-01-23T04:04:22.213Z,992.60
2019-01-23T04:05:22.185Z,992.57
2019-01-23T04:06:22.151Z,992.54
2019-01-23T04:07:22.126Z,992.55
2019-01-23T04:08:22.091Z,992.56
2019-01-23T04:09:22.061Z,992.56
2019-01-23T04:10:22.031Z,992.56
2019-01-23T04:11:21.999Z,992.58
2019-01-23T04:12:21.974Z,992.61
2019-01-23T04:13:21.951Z,992.58
2019-01-23T04:14:21.912Z,992.59
2019-01-23T04:15:21.880Z,992.57
2019-01-23T04:16:21.862Z,992.56
2019-01-23T04:17:21.824Z,992.58
2019-01-23T04:18:21.791Z,992.56
2019-01-23T04:19:21.763Z,992.58
2019-01-23T04:20:21.730Z,992.62
2019-01-23T04:21:21.701Z,992.61
2019-01-23T04:22:21.675Z,992.52
2019-01-23T04:23:21.639Z,992.55
2019-01-23T04:24:21.609Z,992.53
2019-01-23T04:25:21.578Z,992.53
2019-01-23T04:26:21.551Z,992.50
2019-01-23T04:27:21.521Z,992.49
2019-01-23T04:28:21.494Z,992.52
2019-01-23T04:29:21.462Z,992.51
2019-01-23T04:30:21.455Z,992.45
2019-01-23T04:31:21.403Z,992.44
2019-01-23T04:32:21.369Z,992.48
2019-01-23T04:33:21.344Z,992.47
2019-01-23T04:34:21.309Z,992.45
2019-01-23T04:35:21.281Z,992.48
2019-01-23T04:36:21.252Z,992.52
2019-01-23T04:37:21.219Z,992.47
2019-01-23T04:38:21.220Z,992.50
2019-01-23T04:39:21.160Z,992.50
2019-01-23T04:40:21.129Z,992.53
2019-01-23T04:41:21.103Z,992.53
2019-01-23T04:42:21.071Z,992.50
2019-01-23T04:43:21.038Z,992.50
2019-01-23T04:44:21.016Z,992.52
2019-01-23T04:45:20.978Z,992.52
2019-01-23T04:46:20.949Z,992.51
2019-01-23T04:47:20.918Z,992.51
2019-01-23T04:48:20.894Z,992.54
2019-01-23T04:49:20.867Z,992.49
2019-01-23T04:50:20.827Z,992.51
2019-01-23T04:51:20.797Z,992.53
2019-01-23T04:52:20.765Z,992.51
2019-01-23T04:53:20.739Z,992.50
2019-01-23T04:54:20.707Z,992.52
2019-01-23T04:55:20.676Z,992.51
2019-01-23T04:56:20.646Z,992.51
2019-01-23T04:57:20.617Z,992.55
2019-01-23T04:58:20.587Z,992.59
2019-01-23T04:59:20.558Z,992.53
2019-01-23T05:00:20.530Z,992.55
2019-01-23T05:01:20.499Z,992.59
2019-01-23T05:02:20.473Z,992.56
2019-01-23T05:03:20.437Z,992.59
2019-01-23T05:04:20.404Z,992.58
2019-01-23T05:05:20.379Z,992.57
2019-01-23T05:06:20.442Z,992.55
2019-01-23T05:07:20.314Z,992.56
2019-01-23T05:08:20.285Z,992.55
2019-01-23T05:09:20.261Z,992.56
2019-01-23T05:10:20.222Z,992.52
2019-01-23T05:11:20.318Z,992.53
2019-01-23T05:12:20.163Z,992.55
2019-01-23T05:13:20.130Z,992.53
2019-01-23T05:14:20.103Z,992.54
2019-01-23T05:15:20.071Z,992.56
2019-01-23T05:16:20.040Z,992.54
2019-01-23T05:17:20.012Z,992.55
2019-01-23T05:18:19.994Z,992.52
2019-01-23T05:19:19.952Z,992.53
2019-01-23T05:20:20.007Z,992.52
2019-01-23T05:21:19.889Z,992.57
2019-01-23T05:22:19.859Z,992.55
2019-01-23T05:23:19.827Z,992.56
2019-01-23T05:24:19.798Z,992.57
2019-01-23T05:25:19.769Z,992.57
2019-01-23T05:26:19.745Z,992.57
2019-01-23T05:27:19.706Z,992.57
2019-01-23T05:28:19.680Z,992.51
2019-01-23T05:29:19.647Z,992.55
2019-01-23T05:30:19.697Z,992.59
2019-01-23T05:31:19.585Z,992.56
2019-01-23T05:32:19.556Z,992.55
2019-01-23T05:33:19.526Z,992.54
2019-01-23T05:34:19.495Z,992.56
2019-01-23T05:35:19.463Z,992.57
2019-01-23T05:36:19.435Z,992.51
2019-01-23T05:37:19.405Z,992.53
2019-01-23T05:38:19.373Z,992.55
2019-01-23T05:39:19.343Z,992.50
2019-01-23T05:40:19.318Z,992.53
2019-01-23T05:41:19.284Z,992.54
2019-01-23T05:42:19.318Z,992.54
2019-01-23T05:43:19.226Z,992.52
2019-01-23T05:44:19.192Z,992.53
2019-01-23T05:45:19.179Z,992.53
2019-01-23T05:46:19.131Z,992.53
2019-01-23T05:47:19.109Z,992.59
2019-01-23T05:48:19.070Z,992.55
2019-01-23T05:49:19.039Z,992.54
2019-01-23T05:50:19.082Z,992.57
2019-01-23T05:51:18.983Z,992.58
2019-01-23T05:52:19.046Z,992.57
2019-01-23T05:53:18.942Z,992.62
2019-01-23T05:54:18.888Z,992.67
2019-01-23T05:55:18.904Z,992.67
2019-01-23T05:56:18.854Z,992.66
2019-01-23T05:57:18.818Z,992.63
2019-01-23T05:58:18.771Z,992.62
2019-01-23T05:59:18.784Z,992.67
2019-01-23T06:00:18.705Z,992.67
2019-01-23T06:01:18.676Z,992.66
2019-01-23T06:02:18.644Z,992.63
2019-01-23T06:03:18.613Z,992.65
2019-01-23T06:04:18.585Z,992.65
2019-01-23T06:05:18.552Z,992.67
2019-01-23T06:06:18.525Z,992.68
2019-01-23T06:07:18.492Z,992.67
2019-01-23T06:08:18.462Z,992.65
2019-01-23T06:09:18.431Z,992.67
2019-01-23T06:10:18.416Z,992.69
2019-01-23T06:11:18.371Z,992.68
2019-01-23T06:12:18.340Z,992.63
2019-01-23T06:13:18.309Z,992.64
2019-01-23T06:14:18.281Z,992.65
2019-01-23T06:15:18.285Z,992.62
2019-01-23T06:16:18.236Z,992.61
2019-01-23T06:17:18.186Z,992.68
2019-01-23T06:18:18.157Z,992.67
2019-01-23T06:19:18.126Z,992.65
2019-01-23T06:20:18.095Z,992.66
2019-01-23T06:21:18.066Z,992.64
2019-01-23T06:22:18.037Z,992.65
2019-01-23T06:23:18.005Z,992.65
2019-01-23T06:24:17.976Z,992.69
2019-01-23T06:25:17.952Z,992.67
2019-01-23T06:26:17.923Z,992.66
2019-01-23T06:27:17.883Z,992.68
2019-01-23T06:28:17.851Z,992.67
2019-01-23T06:29:17.822Z,992.67
2019-01-23T06:30:17.796Z,992.67
2019-01-23T06:31:17.761Z,992.67
2019-01-23T06:32:17.730Z,992.64
2019-01-23T06:33:17.700Z,992.66
2019-01-23T06:34:17.675Z,992.67
2019-01-23T06:35:17.639Z,992.69
2019-01-23T06:36:17.607Z,992.69
2019-01-23T06:37:17.578Z,992.71
2019-01-23T06:38:17.548Z,992.68
2019-01-23T06:39:17.518Z,992.72
2019-01-23T06:40:17.492Z,992.72
2019-01-23T06:41:17.463Z,992.72
2019-01-23T06:42:17.424Z,992.74
2019-01-23T06:43:17.394Z,992.73
2019-01-23T06:44:17.365Z,992.71
2019-01-23T06:45:17.332Z,992.72
2019-01-23T06:46:17.303Z,992.77
2019-01-23T06:47:17.271Z,992.76
2019-01-23T06:48:17.243Z,992.77
2019-01-23T06:49:17.219Z,992.78
2019-01-23T06:50:17.181Z,992.81
2019-01-23T06:51:17.150Z,992.79
2019-01-23T06:52:17.122Z,992.77
2019-01-23T06:53:17.089Z,992.75
2019-01-23T06:54:17.060Z,992.75
2019-01-23T06:55:17.028Z,992.72
2019-01-23T06:56:16.997Z,992.79
2019-01-23T06:57:16.986Z,992.75
2019-01-23T06:58:16.937Z,992.75
2019-01-23T06:59:16.916Z,992.78
2019-01-23T07:00:17.472Z,992.72
2019-01-23T07:01:16.847Z,992.73
2019-01-23T07:02:16.814Z,992.75
2019-01-23T07:03:16.784Z,992.80
2019-01-23T07:04:16.782Z,992.77
2019-01-23T07:05:16.724Z,992.78
2019-01-23T07:06:16.693Z,992.82
2019-01-23T07:07:16.669Z,992.80
2019-01-23T07:08:16.632Z,992.79
2019-01-23T07:09:16.602Z,992.83
2019-01-23T07:10:16.575Z,992.83
2019-01-23T07:11:16.542Z,992.85
2019-01-23T07:12:16.510Z,992.86
2019-01-23T07:13:16.485Z,992.87
2019-01-23T07:14:16.453Z,992.84
2019-01-23T07:15:16.420Z,992.84
2019-01-23T07:16:16.388Z,992.85
2019-01-23T07:17:16.365Z,992.86
2019-01-23T07:18:16.327Z,992.84
2019-01-23T07:19:16.297Z,992.82
2019-01-23T07:20:16.266Z,992.83
2019-01-23T07:21:16.238Z,992.84
2019-01-23T07:22:16.206Z,992.82
2019-01-23T07:23:16.175Z,992.82
2019-01-23T07:24:16.146Z,992.85
2019-01-23T07:25:16.118Z,992.85
2019-01-23T07:26:16.084Z,992.91
2019-01-23T07:27:16.054Z,992.89
2019-01-23T07:28:16.024Z,992.90
2019-01-23T07:29:15.994Z,992.89
2019-01-23T07:30:15.966Z,992.86
2019-01-23T07:31:15.934Z,992.88
2019-01-23T07:32:15.903Z,992.89
2019-01-23T07:33:15.874Z,992.90
2019-01-23T07:34:15.843Z,992.89
2019-01-23T07:35:15.813Z,992.85
2019-01-23T07:36:15.797Z,992.89
2019-01-23T07:37:15.750Z,992.92
2019-01-23T07:38:15.722Z,992.94
2019-01-23T07:39:15.697Z,992.92
2019-01-23T07:40:15.661Z,992.93
2019-01-23T07:41:15.630Z,992.92
2019-01-23T07:42:15.602Z,992.90
2019-01-23T07:43:15.568Z,992.89
2019-01-23T07:44:15.548Z,992.90
2019-01-23T07:45:15.511Z,992.91
2019-01-23T07:46:15.483Z,992.92
2019-01-23T07:47:15.448Z,992.89
2019-01-23T07:48:15.418Z,992.90
2019-01-23T07:49:15.392Z,992.92
2019-01-23T07:50:15.357Z,992.86
2019-01-23T07:51:15.325Z,992.90
2019-01-23T07:52:15.296Z,992.91
2019-01-23T07:53:15.285Z,992.91
2019-01-23T07:54:15.237Z,992.96
2019-01-23T07:55:15.208Z,992.97
2019-01-23T07:56:15.197Z,992.93
2019-01-23T07:57:15.147Z,992.93
2019-01-23T07:58:15.120Z,992.91
2019-01-23T07:59:15.084Z,992.92
2019-01-23T08:00:15.054Z,992.93
2019-01-23T08:01:15.024Z,992.94
2019-01-23T08:02:14.995Z,992.91
2019-01-23T08:03:14.963Z,992.88
2019-01-23T08:04:14.935Z,992.88
2019-01-23T08:05:19.459Z,992.90
2019-01-23T08:06:14.877Z,992.90
2019-01-23T08:07:14.844Z,992.90
2019-01-23T08:08:14.812Z,992.94
2019-01-23T08:09:14.820Z,992.92
2019-01-23T08:10:14.755Z,992.98
2019-01-23T08:11:14.720Z,992.94
2019-01-23T08:12:14.691Z,992.99
2019-01-23T08:13:14.726Z,992.98
2019-01-23T08:14:14.634Z,992.98
2019-01-23T08:15:14.601Z,992.91
2019-01-23T08:16:14.571Z,992.97
2019-01-23T08:17:14.543Z,992.95
2019-01-23T08:18:14.513Z,992.98
2019-01-23T08:19:14.483Z,992.93
2019-01-23T08:20:14.451Z,992.96
2019-01-23T08:21:14.450Z,992.97
2019-01-23T08:22:14.391Z,992.97
2019-01-23T08:23:14.363Z,992.98
2019-01-23T08:24:14.331Z,992.97
2019-01-23T08:25:14.301Z,992.98
2019-01-23T08:26:14.274Z,992.94
2019-01-23T08:27:14.240Z,992.96
2019-01-23T08:28:14.209Z,992.97
2019-01-23T08:29:14.180Z,993.00
2019-01-23T08:30:14.150Z,992.99
2019-01-23T08:31:14.129Z,992.98
2019-01-23T08:32:14.090Z,993.03
2019-01-23T08:33:14.059Z,993.03
2019-01-23T08:34:14.035Z,992.99
2019-01-23T08:35:14.001Z,993.00
2019-01-23T08:36:13.967Z,992.97
2019-01-23T08:37:13.939Z,993.04
2019-01-23T08:38:13.909Z,993.01
2019-01-23T08:39:13.880Z,992.98
2019-01-23T08:40:13.849Z,992.97
2019-01-23T08:41:13.820Z,992.98
2019-01-23T08:42:13.809Z,992.98
2019-01-23T08:43:13.761Z,992.99
2019-01-23T08:44:13.730Z,992.98
2019-01-23T08:45:13.702Z,992.98
2019-01-23T08:46:13.671Z,993.03
2019-01-23T08:47:13.640Z,993.01
2019-01-23T08:48:13.611Z,993.03
2019-01-23T08:49:13.581Z,993.06
2019-01-23T08:50:13.550Z,993.03
2019-01-23T08:51:13.521Z,993.06
2019-01-23T08:52:13.492Z,993.04
2019-01-23T08:53:13.468Z,993.03
2019-01-23T08:54:13.433Z,993.04
2019-01-23T08:55:13.401Z,993.04
2019-01-23T08:56:13.373Z,993.03
2019-01-23T08:57:13.343Z,993.04
2019-01-23T08:58:13.312Z,993.05
2019-01-23T08:59:13.283Z,993.05
2019-01-23T09:00:13.255Z,993.08
2019-01-23T09:01:13.222Z,993.11
2019-01-23T09:02:13.193Z,993.11
2019-01-23T09:03:13.162Z,993.09
2019-01-23T09:04:13.194Z,993.10
2019-01-23T09:05:13.103Z,993.07
2019-01-23T09:06:13.074Z,993.14
2019-01-23T09:07:13.044Z,993.12
2019-01-23T09:08:13.015Z,993.13
2019-01-23T09:09:12.984Z,993.10
2019-01-23T09:10:12.956Z,993.13
2019-01-23T09:11:12.924Z,993.13
2019-01-23T09:12:12.896Z,993.14
2019-01-23T09:13:12.872Z,993.15
2019-01-23T09:14:12.862Z,993.19
2019-01-23T09:15:12.807Z,993.20
2019-01-23T09:16:12.778Z,993.23
2019-01-23T09:17:12.746Z,993.26
2019-01-23T09:18:12.739Z,993.27
2019-01-23T09:19:12.688Z,993.24
2019-01-23T09:20:12.659Z,993.28
2019-01-23T09:21:12.631Z,993.29
2019-01-23T09:22:12.598Z,993.29
2019-01-23T09:23:12.575Z,993.29
2019-01-23T09:24:12.537Z,993.30
2019-01-23T09:25:12.509Z,993.30
2019-01-23T09:26:12.480Z,993.32
2019-01-23T09:27:12.448Z,993.33
2019-01-23T09:28:12.418Z,993.33
2019-01-23T09:29:12.391Z,993.35
2019-01-23T09:30:12.363Z,993.32
2019-01-23T09:31:12.333Z,993.33
2019-01-23T09:32:12.299Z,993.37
2019-01-23T09:33:12.272Z,993.35
2019-01-23T09:34:12.242Z,993.35
2019-01-23T09:35:12.216Z,993.33
2019-01-23T09:36:12.183Z,993.35
2019-01-23T09:37:12.154Z,993.34
2019-01-23T09:38:12.126Z,993.40
2019-01-23T09:39:12.093Z,993.42
2019-01-23T09:40:12.066Z,993.40
2019-01-23T09:41:12.034Z,993.46
2019-01-23T09:42:12.005Z,993.43
2019-01-23T09:43:11.975Z,993.43
2019-01-23T09:44:11.946Z,993.44
2019-01-23T09:45:11.915Z,993.41
2019-01-23T09:46:11.887Z,993.45
2019-01-23T09:47:11.855Z,993.42
2019-01-23T09:48:11.829Z,993.48
2019-01-23T09:49:11.798Z,993.48
2019-01-23T09:50:11.770Z,993.48
2019-01-23T09:51:11.739Z,993.46
2019-01-23T09:52:11.729Z,993.47
2019-01-23T09:53:11.680Z,993.48
2019-01-23T09:54:11.651Z,993.47
2019-01-23T09:55:11.622Z,993.48
2019-01-23T09:56:11.591Z,993.52
2019-01-23T09:57:11.562Z,993.50
2019-01-23T09:58:11.533Z,993.53
2019-01-23T09:59:11.502Z,993.52
2019-01-23T10:00:11.472Z,993.54
2019-01-23T10:01:11.513Z,993.49
2019-01-23T10:02:11.416Z,993.51
2019-01-23T10:03:11.384Z,993.49
2019-01-23T10:04:11.361Z,993.54
2019-01-23T10:05:11.325Z,993.54
2019-01-23T10:06:11.303Z,993.52
2019-01-23T10:07:11.266Z,993.56
2019-01-23T10:08:11.240Z,993.57
2019-01-23T10:09:11.209Z,993.55
2019-01-23T10:10:11.178Z,993.57
2019-01-23T10:11:11.150Z,993.57
2019-01-23T10:12:11.125Z,993.60
2019-01-23T10:13:11.089Z,993.58
2019-01-23T10:14:11.061Z,993.58
2019-01-23T10:15:11.030Z,993.62
2019-01-23T10:16:11.004Z,993.64
2019-01-23T10:17:10.975Z,993.60
2019-01-23T10:18:10.943Z,993.67
2019-01-23T10:19:10.914Z,993.60
2019-01-23T10:20:10.885Z,993.61
2019-01-23T10:21:10.855Z,993.61
2019-01-23T10:22:10.832Z,993.60
2019-01-23T10:23:10.796Z,993.60
2019-01-23T10:24:10.767Z,993.60
2019-01-23T10:25:10.742Z,993.61
2019-01-23T10:26:10.718Z,993.53
2019-01-23T10:27:10.683Z,993.57
2019-01-23T10:28:10.653Z,993.57
2019-01-23T10:29:10.623Z,993.57
2019-01-23T10:30:10.595Z,993.58
2019-01-23T10:31:10.565Z,993.62
2019-01-23T10:32:10.537Z,993.59
2019-01-23T10:33:10.513Z,993.57
2019-01-23T10:34:10.480Z,993.60
2019-01-23T10:35:10.446Z,993.59
2019-01-23T10:36:10.420Z,993.59
2019-01-23T10:37:10.391Z,993.59
2019-01-23T10:38:10.362Z,993.62
2019-01-23T10:39:10.332Z,993.60
2019-01-23T10:40:10.305Z,993.59
2019-01-23T10:41:10.273Z,993.60
2019-01-23T10:42:10.246Z,993.58
2019-01-23T10:43:10.216Z,993.54
2019-01-23T10:44:10.189Z,993.57
2019-01-23T10:45:10.162Z,993.55
2019-01-23T10:46:10.132Z,993.56
2019-01-23T10:47:10.102Z,993.54
2019-01-23T10:48:10.073Z,993.56
2019-01-23T10:49:10.045Z,993.57
2019-01-23T10:50:10.018Z,993.54
2019-01-23T10:51:09.988Z,993.52
2019-01-23T10:52:09.958Z,993.54
2019-01-23T10:53:09.930Z,993.54
2019-01-23T10:54:09.995Z,993.53
2019-01-23T10:55:09.873Z,993.50
2019-01-23T10:56:09.845Z,993.57
2019-01-23T10:57:09.818Z,993.59
2019-01-23T10:58:09.786Z,993.58
2019-01-23T10:59:09.758Z,993.55
2019-01-23T11:00:09.736Z,993.54
2019-01-23T11:01:13.400Z,993.56
2019-01-23T11:02:09.687Z,993.48
2019-01-23T11:03:10.115Z,993.54
2019-01-23T11:04:09.616Z,993.52
2019-01-23T11:05:09.588Z,993.55
2019-01-23T11:06:09.562Z,993.49
2019-01-23T11:07:09.531Z,993.52
2019-01-23T11:08:09.507Z,993.54
2019-01-23T11:09:09.741Z,993.56
2019-01-23T11:10:09.445Z,993.51
2019-01-23T11:11:09.416Z,993.53
2019-01-23T11:12:09.389Z,993.53
2019-01-23T11:13:09.360Z,993.55
2019-01-23T11:14:09.332Z,993.55
2019-01-23T11:15:09.305Z,993.53
2019-01-23T11:16:09.272Z,993.51
2019-01-23T11:17:09.245Z,993.49
2019-01-23T11:18:09.217Z,993.54
2019-01-23T11:19:09.186Z,993.50
2019-01-23T11:20:09.158Z,993.51
2019-01-23T11:21:09.131Z,993.54
2019-01-23T11:22:09.103Z,993.54
2019-01-23T11:23:09.075Z,993.55
2019-01-23T11:24:09.047Z,993.56
2019-01-23T11:25:09.016Z,993.58
2019-01-23T11:26:08.993Z,993.56
2019-01-23T11:27:08.960Z,993.55
2019-01-23T11:28:08.931Z,993.57
2019-01-23T11:29:08.905Z,993.53
2019-01-23T11:30:08.876Z,993.56
2019-01-23T11:31:08.845Z,993.58
2019-01-23T11:32:08.818Z,993.53
2019-01-23T11:33:08.791Z,993.55
2019-01-23T11:34:08.763Z,993.55
2019-01-23T11:35:08.734Z,993.56
2019-01-23T11:36:08.705Z,993.56
2019-01-23T11:37:08.678Z,993.57
2019-01-23T11:38:08.674Z,993.58
2019-01-23T11:39:08.620Z,993.58
2019-01-23T11:40:08.603Z,993.59
2019-01-23T11:41:08.567Z,993.64
2019-01-23T11:42:08.536Z,993.63
2019-01-23T11:43:08.507Z,993.68
2019-01-23T11:44:08.480Z,993.69
2019-01-23T11:45:08.454Z,993.71
2019-01-23T11:46:08.425Z,993.71
2019-01-23T11:47:08.395Z,993.73
2019-01-23T11:48:08.367Z,993.74
2019-01-23T11:49:08.341Z,993.73
2019-01-23T11:50:08.311Z,993.74
2019-01-23T11:51:08.282Z,993.68
2019-01-23T11:52:08.253Z,993.70
2019-01-23T11:53:08.230Z,993.73
2019-01-23T11:54:08.199Z,993.74
2019-01-23T11:55:08.169Z,993.74
2019-01-23T11:56:08.922Z,993.75
2019-01-23T11:57:08.156Z,993.79
2019-01-23T11:58:08.085Z,993.71
2019-01-23T11:59:08.056Z,993.76
2019-01-23T12:00:08.029Z,993.70
2019-01-23T12:01:08.001Z,993.75
2019-01-23T12:02:07.977Z,993.77
2019-01-23T12:03:07.943Z,993.76
2019-01-23T12:04:07.918Z,993.76
2019-01-23T12:05:07.892Z,993.72
2019-01-23T12:06:07.860Z,993.75
2019-01-23T12:07:07.872Z,993.75
2019-01-23T12:08:07.808Z,993.76
2019-01-23T12:09:07.777Z,993.72
2019-01-23T12:10:07.750Z,993.77
2019-01-23T12:11:07.725Z,993.76
2019-01-23T12:12:07.693Z,993.77
2019-01-23T12:13:07.668Z,993.78
2019-01-23T12:14:07.684Z,993.78
2019-01-23T12:15:07.610Z,993.76
2019-01-23T12:16:07.581Z,993.76
2019-01-23T12:17:07.564Z,993.76
2019-01-23T12:18:07.527Z,993.74
2019-01-23T12:19:07.500Z,993.74
2019-01-23T12:20:07.471Z,993.73
2019-01-23T12:21:07.445Z,993.75
2019-01-23T12:22:07.415Z,993.73
2019-01-23T12:23:07.388Z,993.71
2019-01-23T12:24:07.361Z,993.73
2019-01-23T12:25:07.335Z,993.70
2019-01-23T12:26:07.309Z,993.71
2019-01-23T12:27:07.281Z,993.70
2019-01-23T12:28:07.250Z,993.68